Lacarne, Ohio
Current Conditions -  °F | °C
As of 9:13 AM on Saturday 25 Oct 2014 (Local Time) from KPCW Reporting Station
Overcast Overcast  
Wind Chill: 55°   Ceiling: 4700
Heat Index: 55°   Visibility: 10mi
Dew Point: 52°   Wind: 8mph
Humidity: 88%   Direction: 220°SW
Pressure: 29.87"   Gusts: NA
Location:  41.52°N, 83.04°W
Report Text: KPCW 251313Z AUTO 22007KT 10SM BKN047 OVC070 13/11 A2987 RMK AO2 $
Loading
Personal Weather Stations






























Interactive Weather Map
Tropical Storm Tracking
New forecast layout! Learn more

10-Day Weather Forecast

Advertisements
Track Severe Weather on mobile